Time;durP1;ratioP1;P1;durP2;ratioP2;P2;SDS_P1;SDS_P2;PMS_P1;PMS_P2;Temp;Humidity;BMP_temperature;BMP_pressure;BME280_temperature;BME280_humidity;BME280_pressure;Samples;Min_cycle;Max_cycle;Signal;HPM_P1;HPM_P2
2022/04/25 00:01:57;;;;;;;27.50;7.20;;;;;;;22.64;36.45;94386.56;5031076;28;20447;-60
2022/04/25 00:04:25;;;;;;;24.50;7.43;;;;;;;22.66;36.48;94374.41;5030605;28;20550;-60
2022/04/25 00:06:52;;;;;;;31.23;6.67;;;;;;;22.54;36.65;94363.78;5030941;28;20499;-58
2022/04/25 00:09:19;;;;;;;33.63;6.80;;;;;;;22.54;36.45;94379.03;5030721;28;20528;-59
2022/04/25 00:11:46;;;;;;;25.73;6.37;;;;;;;22.65;36.25;94383.56;5030734;28;20806;-61
2022/04/25 00:14:14;;;;;;;23.13;6.60;;;;;;;22.67;35.98;94392.00;5030839;28;20578;-53
2022/04/25 00:16:41;;;;;;;26.50;6.80;;;;;;;22.86;35.82;94386.75;5030015;28;20464;-59
2022/04/25 00:19:09;;;;;;;34.30;6.33;;;;;;;22.72;35.75;94389.06;5030909;28;20439;-55
2022/04/25 00:21:35;;;;;;;30.33;6.10;;;;;;;22.54;36.09;94397.72;5030306;28;20424;-63
2022/04/25 00:24:02;;;;;;;33.80;6.63;;;;;;;22.42;36.73;94395.91;5030897;28;20541;-57
2022/04/25 00:26:29;;;;;;;26.13;6.97;;;;;;;22.46;36.66;94396.78;5030036;28;20451;-54
2022/04/25 00:28:56;;;;;;;24.03;6.60;;;;;;;22.37;36.71;94382.78;5031061;28;20454;-54
2022/04/25 00:31:23;;;;;;;33.87;6.70;;;;;;;22.62;36.37;94399.50;5029777;28;21052;-61
2022/04/25 00:33:50;;;;;;;28.97;7.23;;;;;;;22.55;36.53;94394.75;5030445;28;20498;-56
2022/04/25 00:36:17;;;;;;;32.80;7.17;;;;;;;22.63;36.19;94406.38;5029592;28;20451;-61
2022/04/25 00:38:45;;;;;;;31.40;6.60;;;;;;;22.80;36.02;94395.38;5030506;28;20456;-54
2022/04/25 00:41:12;;;;;;;28.07;6.50;;;;;;;22.57;36.45;94397.84;5030086;28;20451;-58
2022/04/25 00:43:39;;;;;;;22.43;6.27;;;;;;;22.44;36.35;94399.00;5030632;28;21176;-54
2022/04/25 00:46:06;;;;;;;31.53;6.77;;;;;;;22.43;36.64;94400.13;5029895;28;20451;-56
2022/04/25 00:48:33;;;;;;;29.20;7.60;;;;;;;22.13;37.43;94412.25;5030796;28;20472;-63
2022/04/25 00:51:00;;;;;;;21.03;6.33;;;;;;;22.01;37.78;94405.06;5029669;28;20531;-54
2022/04/25 00:53:28;;;;;;;24.97;6.23;;;;;;;22.35;37.01;94400.28;5030238;28;20473;-59
2022/04/25 00:55:55;;;;;;;30.33;7.73;;;;;;;22.58;36.56;94394.06;5029701;28;20451;-54
2022/04/25 00:58:22;;;;;;;29.30;6.80;;;;;;;22.40;36.84;94387.47;5030043;28;21063;-53
2022/04/25 01:00:48;;;;;;;28.27;6.77;;;;;;;22.66;36.66;94390.44;5029313;28;20432;-53
2022/04/25 01:03:16;;;;;;;27.47;6.50;;;;;;;22.51;36.97;94383.19;5030066;28;20450;-59
2022/04/25 01:05:43;;;;;;;26.50;7.00;;;;;;;22.63;36.62;94383.13;5030020;28;20514;-55
2022/04/25 01:08:10;;;;;;;22.57;6.83;;;;;;;22.38;37.25;94373.66;5030581;28;20502;-55
2022/04/25 01:10:37;;;;;;;24.60;6.77;;;;;;;22.19;37.68;94370.84;5029369;28;20499;-56
2022/04/25 01:13:04;;;;;;;27.87;6.93;;;;;;;21.17;39.75;94384.63;5030235;28;20877;-59
2022/04/25 01:15:31;;;;;;;28.27;7.37;;;;;;;21.09;40.30;94380.16;5029736;28;20475;-61
2022/04/25 01:17:58;;;;;;;25.20;7.00;;;;;;;21.35;39.67;94379.06;5029870;28;20529;-57
2022/04/25 01:20:25;;;;;;;25.33;6.20;;;;;;;20.98;40.42;94365.69;5029196;28;21040;-60
2022/04/25 01:22:57;;;;;;;24.13;6.73;;;;;;;21.46;39.17;94358.84;5029805;28;20486;-54
2022/04/25 01:28:09;;;;;;;27.33;6.90;;;;;;;21.79;38.78;94338.88;5029898;28;20463;-56
2022/04/25 01:30:36;;;;;;;22.13;6.90;;;;;;;21.80;38.87;94342.34;5028930;28;20538;-58
2022/04/25 01:33:03;;;;;;;32.83;7.37;;;;;;;21.60;38.93;94343.25;5029667;28;20459;-61
2022/04/25 01:35:30;;;;;;;34.07;7.03;;;;;;;21.88;38.60;94344.06;5029566;28;20446;-56
2022/04/25 01:37:57;;;;;;;26.73;7.30;;;;;;;21.95;38.35;94328.28;5029762;28;20452;-53
2022/04/25 01:40:25;;;;;;;27.23;7.17;;;;;;;21.77;38.48;94324.31;5029041;28;20855;-53
2022/04/25 01:42:52;;;;;;;26.23;7.27;;;;;;;21.81;38.25;94327.88;5029719;28;20938;-54
2022/04/25 01:45:20;;;;;;;30.90;7.33;;;;;;;21.83;38.38;94330.97;5028970;28;20428;-56
2022/04/25 01:47:47;;;;;;;32.27;7.73;;;;;;;21.26;39.65;94325.88;5028771;28;20443;-61
2022/04/25 01:50:14;;;;;;;28.03;7.40;;;;;;;21.54;38.66;94334.72;5028842;28;20443;-59
2022/04/25 01:52:40;;;;;;;21.93;7.00;;;;;;;21.77;38.29;94322.41;5029512;28;20444;-56
2022/04/25 01:55:08;;;;;;;25.30;6.20;;;;;;;21.89;38.24;94329.63;5029198;28;20432;-61
2022/04/25 01:57:35;;;;;;;21.40;6.83;;;;;;;21.79;38.47;94319.44;5029214;28;20444;-56
2022/04/25 02:00:03;;;;;;;26.60;7.53;;;;;;;21.75;38.33;94323.88;5028176;28;20535;-62
2022/04/25 02:02:30;;;;;;;23.37;7.23;;;;;;;21.78;38.25;94323.19;5029454;28;20831;-59
2022/04/25 02:04:59;;;;;;;25.57;6.67;;;;;;;21.80;38.16;94321.00;5029123;28;20452;-54
2022/04/25 02:07:26;;;;;;;25.87;6.50;;;;;;;21.68;38.22;94307.66;5029365;28;20483;-56
2022/04/25 02:09:53;;;;;;;22.93;6.97;;;;;;;21.15;39.62;94308.78;5028535;28;20533;-59
2022/04/25 02:12:21;;;;;;;27.33;7.37;;;;;;;21.77;38.05;94305.66;5029175;28;20440;-58
2022/04/25 02:14:48;;;;;;;29.87;7.03;;;;;;;21.82;38.44;94313.44;5028757;28;20483;-61
2022/04/25 02:17:14;;;;;;;27.73;6.80;;;;;;;21.71;38.33;94309.66;5028980;28;20471;-60
2022/04/25 02:19:44;;;;;;;26.90;7.90;;;;;;;21.66;38.53;94312.59;5028477;28;21053;-57
2022/04/25 02:22:13;;;;;;;24.47;6.83;;;;;;;21.72;38.38;94303.22;5029004;28;20443;-57
2022/04/25 02:24:41;;;;;;;24.50;7.70;;;;;;;21.77;38.36;94311.75;5029315;28;21005;-57
2022/04/25 02:27:08;;;;;;;29.13;7.40;;;;;;;21.57;38.68;94312.69;5030063;28;20440;-61
2022/04/25 02:29:41;;;;;;;32.83;7.43;;;;;;;21.39;39.51;94318.63;5028316;28;20483;-54
2022/04/25 02:32:12;;;;;;;31.73;7.47;;;;;;;21.27;39.48;94319.44;5028907;28;20444;-57
2022/04/25 02:34:41;;;;;;;30.47;7.33;;;;;;;21.36;39.61;94320.09;5028260;28;20827;-55
2022/04/25 02:37:08;;;;;;;32.33;7.33;;;;;;;21.56;38.71;94299.72;5029183;28;20566;-60
2022/04/25 02:39:35;;;;;;;30.53;7.80;;;;;;;21.42;39.39;94305.44;5027044;28;20895;-58
2022/04/25 02:42:02;;;;;;;23.23;7.77;;;;;;;21.28;39.42;94320.19;5028685;28;20436;-53
2022/04/25 02:44:29;;;;;;;30.63;8.27;;;;;;;21.23;39.63;94317.78;5028905;28;20458;-52
2022/04/25 02:46:56;;;;;;;22.70;7.10;;;;;;;21.25;39.98;94320.88;5028691;28;20479;-57
2022/04/25 02:49:23;;;;;;;30.23;7.97;;;;;;;21.45;39.53;94293.28;5029143;28;20444;-55
2022/04/25 02:51:50;;;;;;;27.97;7.70;;;;;;;21.32;39.78;94305.09;5027918;28;20439;-54
2022/04/25 02:54:17;;;;;;;20.33;7.93;;;;;;;19.31;43.92;94319.59;5028943;28;20564;-57
2022/04/25 02:56:44;;;;;;;22.57;7.20;;;;;;;19.90;43.46;94301.63;5028297;28;20502;-54
2022/04/25 02:59:11;;;;;;;24.57;8.23;;;;;;;20.66;41.60;94299.22;5030231;28;20988;-58
2022/04/25 03:01:38;;;;;;;24.63;7.67;;;;;;;20.57;41.73;94290.56;5031402;28;20443;-59
2022/04/25 03:04:05;;;;;;;36.03;8.03;;;;;;;20.49;42.10;94292.22;5032170;28;20451;-57
2022/04/25 03:06:32;;;;;;;22.33;7.93;;;;;;;20.82;41.16;94287.59;5031868;28;20471;-62
2022/04/25 03:09:00;;;;;;;26.37;8.10;;;;;;;21.01;40.63;94285.19;5032590;28;20509;-58
2022/04/25 03:11:26;;;;;;;24.53;7.03;;;;;;;21.03;40.32;94282.97;5031411;28;20448;-58
2022/04/25 03:13:53;;;;;;;30.00;8.27;;;;;;;21.09;40.46;94292.25;5032249;28;20486;-60
2022/04/25 03:16:20;;;;;;;28.50;9.43;;;;;;;21.12;40.17;94291.59;5031632;28;21040;-52
2022/04/25 03:18:48;;;;;;;20.70;7.87;;;;;;;21.37;39.73;94294.22;5032125;28;20566;-59
2022/04/25 03:21:15;;;;;;;27.73;9.20;;;;;;;21.12;40.29;94288.94;5031326;28;21020;-63
2022/04/25 03:23:42;;;;;;;28.63;8.80;;;;;;;20.29;42.26;94279.78;5031985;28;20522;-55
2022/04/25 03:26:09;;;;;;;22.67;7.87;;;;;;;20.72;41.36;94298.69;5031496;28;20861;-49
2022/04/25 03:28:36;;;;;;;29.73;9.20;;;;;;;20.99;40.85;94287.38;5031777;28;20486;-60
2022/04/25 03:31:06;;;;;;;27.10;8.77;;;;;;;21.02;40.99;94301.94;5030945;28;20970;-53
2022/04/25 03:33:35;;;;;;;34.37;9.07;;;;;;;20.97;40.83;94304.78;5031764;28;20483;-60
2022/04/25 03:36:03;;;;;;;25.40;8.13;;;;;;;21.20;40.44;94308.56;5031551;28;20452;-58
2022/04/25 03:38:30;;;;;;;26.57;8.97;;;;;;;20.89;40.80;94305.69;5032166;28;20498;-57
2022/04/25 03:40:57;;;;;;;25.47;8.83;;;;;;;20.79;41.09;94308.78;5030942;28;20466;-54
2022/04/25 03:43:24;;;;;;;23.37;8.50;;;;;;;20.71;41.25;94307.78;5031846;28;20482;-51
2022/04/25 03:45:51;;;;;;;26.30;8.27;;;;;;;20.38;41.96;94316.97;5031728;28;20822;-54
2022/04/25 03:48:18;;;;;;;40.60;9.47;;;;;;;20.36;42.13;94333.25;5031537;28;20981;-57
2022/04/25 03:50:45;;;;;;;33.00;8.83;;;;;;;19.08;45.37;94343.00;5030944;28;21170;-56
2022/04/25 03:53:14;;;;;;;25.50;8.67;;;;;;;19.68;44.60;94328.53;5031520;28;20484;-63
2022/04/25 03:58:27;;;;;;;22.60;9.23;;;;;;;19.97;43.81;94336.44;5031448;28;20994;-59
2022/04/25 04:00:54;;;;;;;24.93;9.77;;;;;;;20.14;43.44;94336.28;5030566;28;20493;-62
2022/04/25 04:03:21;;;;;;;28.20;8.47;;;;;;;20.33;42.57;94325.16;5030872;28;20483;-53
2022/04/25 04:05:50;;;;;;;35.10;9.03;;;;;;;20.49;42.39;94326.81;5030639;28;20437;-55
2022/04/25 04:08:18;;;;;;;25.67;9.53;;;;;;;19.90;43.45;94357.44;5031060;28;20459;-60
2022/04/25 04:10:45;;;;;;;29.80;9.30;;;;;;;19.99;43.53;94350.16;5029722;28;20428;-61
2022/04/25 04:13:12;;;;;;;24.17;9.47;;;;;;;20.03;43.31;94335.13;5030735;28;20558;-63
2022/04/25 04:15:40;;;;;;;27.17;9.47;;;;;;;20.31;42.71;94352.06;5030626;28;20443;-56
2022/04/25 04:18:08;;;;;;;29.63;9.20;;;;;;;19.97;43.66;94361.16;5031187;28;20575;-56
2022/04/25 04:20:35;;;;;;;24.30;9.73;;;;;;;19.68;44.18;94349.81;5030782;28;20455;-61
2022/04/25 04:23:03;;;;;;;25.43;9.37;;;;;;;20.29;43.03;94348.97;5030412;28;20554;-61
2022/04/25 04:25:32;;;;;;;28.60;9.40;;;;;;;19.86;43.89;94361.84;5030340;28;20466;-58
2022/04/25 04:28:00;;;;;;;32.13;9.13;;;;;;;20.18;42.89;94343.28;5031078;28;20831;-55
2022/04/25 04:30:27;;;;;;;25.27;10.13;;;;;;;20.00;43.48;94367.66;5030636;28;20466;-53
2022/04/25 04:32:54;;;;;;;25.87;9.23;;;;;;;20.05;43.49;94354.19;5030153;28;20523;-54
2022/04/25 04:38:07;;;;;;;35.10;8.53;;;;;;;20.30;42.89;94339.09;5030600;28;20450;-60
2022/04/25 04:40:35;;;;;;;27.70;9.07;;;;;;;19.89;43.52;94339.97;5030036;28;20796;-50
2022/04/25 04:43:03;;;;;;;38.70;9.37;;;;;;;19.71;44.30;94370.41;5030536;28;20446;-52
2022/04/25 04:45:30;;;;;;;27.20;8.93;;;;;;;20.35;42.76;94355.63;5029999;28;20458;-61
2022/04/25 04:47:57;;;;;;;28.67;9.00;;;;;;;20.30;42.84;94355.84;5030386;28;20446;-55
2022/04/25 04:50:24;;;;;;;30.87;9.43;;;;;;;20.00;43.65;94367.66;5029835;28;20455;-61
2022/04/25 04:52:57;;;;;;;31.87;9.40;;;;;;;20.51;42.34;94345.91;5029978;28;20436;-60
2022/04/25 04:55:24;;;;;;;26.33;9.10;;;;;;;19.97;43.48;94376.31;5029983;28;20575;-57
2022/04/25 04:57:55;;;;;;;32.13;9.17;;;;;;;19.92;43.65;94377.31;5029070;28;20554;-61
2022/04/25 05:00:23;;;;;;;27.50;8.97;;;;;;;20.03;43.20;94377.69;5029650;28;20530;-58
2022/04/25 05:02:51;;;;;;;25.57;10.23;;;;;;;19.44;44.79;94378.91;5030150;28;20440;-55
2022/04/25 05:05:19;;;;;;;38.70;10.03;;;;;;;20.61;42.58;94371.34;5029676;28;20895;-54
2022/04/25 05:07:46;;;;;;;26.80;9.20;;;;;;;20.75;41.91;94377.13;5029929;28;20436;-57
2022/04/25 05:10:13;;;;;;;26.97;9.67;;;;;;;21.00;41.70;94373.41;5029818;28;20908;-60
2022/04/25 05:12:49;;;;;;;31.70;8.93;;;;;;;20.87;41.85;94367.28;5029794;28;20440;-54
2022/04/25 05:15:18;;;;;;;37.07;9.80;;;;;;;20.83;41.79;94406.31;5029374;28;20483;-53
2022/04/25 05:17:49;;;;;;;26.93;9.70;;;;;;;20.53;42.20;94399.59;5029411;28;20471;-54
2022/04/25 05:20:18;;;;;;;22.97;9.30;;;;;;;20.95;42.34;94395.69;5029370;28;20542;-55
2022/04/25 05:22:47;;;;;;;32.07;9.47;;;;;;;20.77;41.83;94412.97;5028408;28;20444;-56
2022/04/25 05:25:16;;;;;;;24.43;9.27;;;;;;;20.74;41.59;94399.53;5029642;28;20455;-51
2022/04/25 05:27:48;;;;;;;30.73;9.37;;;;;;;21.14;40.94;94390.63;5029345;28;20416;-58
2022/04/25 05:30:16;;;;;;;28.87;7.73;;;;;;;21.23;40.36;94408.38;5029230;28;20778;-56
2022/04/25 05:32:51;;;;;;;31.37;8.60;;;;;;;21.30;40.22;94403.25;5029519;28;20874;-61
2022/04/25 05:35:21;;;;;;;28.90;9.07;;;;;;;21.12;41.18;94398.16;5028728;28;20581;-50
2022/04/25 05:37:48;;;;;;;29.03;7.90;;;;;;;21.44;39.93;94409.03;5029504;28;20478;-60
2022/04/25 05:40:19;;;;;;;25.37;7.90;;;;;;;21.58;39.82;94390.81;5029205;28;20439;-56
2022/04/25 05:42:47;;;;;;;28.63;8.17;;;;;;;21.62;39.65;94410.34;5029507;28;20512;-54
2022/04/25 05:45:20;;;;;;;28.40;8.13;;;;;;;21.79;39.67;94404.78;5029237;28;20444;-55
2022/04/25 05:47:48;;;;;;;27.13;7.53;;;;;;;22.11;39.04;94401.16;5029361;28;20439;-60
2022/04/25 05:53:04;;;;;;;33.80;7.50;;;;;;;22.23;39.00;94393.09;5029020;28;20452;-54
2022/04/25 05:55:32;;;;;;;26.97;7.37;;;;;;;22.23;38.55;94395.75;5029164;28;20501;-58
2022/04/25 05:58:03;;;;;;;31.17;8.67;;;;;;;22.16;39.21;94408.91;5029080;28;20460;-59
2022/04/25 06:00:31;;;;;;;28.73;7.03;;;;;;;21.97;39.09;94406.84;5029012;28;20459;-58
2022/04/25 06:02:58;;;;;;;23.43;6.77;;;;;;;22.38;38.39;94397.69;5029036;28;20446;-58
2022/04/25 06:05:26;;;;;;;31.13;7.37;;;;;;;22.46;38.53;94399.44;5029089;28;20530;-54
2022/04/25 06:07:53;;;;;;;31.83;6.87;;;;;;;22.32;38.00;94411.63;5029052;28;20974;-55
2022/04/25 06:10:28;;;;;;;33.03;6.77;;;;;;;21.84;38.25;94401.91;5028740;28;20435;-58
2022/04/25 06:12:55;;;;;;;27.13;6.20;;;;;;;22.38;38.25;94392.34;5029114;28;20454;-60
2022/04/25 06:15:26;;;;;;;23.80;6.20;;;;;;;22.02;38.11;94389.84;5028739;28;20507;-55
2022/04/25 06:17:55;;;;;;;31.73;6.53;;;;;;;22.13;37.88;94382.91;5028834;28;20525;-60
2022/04/25 06:20:22;;;;;;;31.30;7.33;;;;;;;22.58;37.22;94383.38;5028532;28;20442;-63
2022/04/25 06:23:02;;;;;;;24.03;6.27;;;;;;;22.85;37.57;94377.19;5029460;28;20447;-55
2022/04/25 06:25:30;;;;;;;33.67;7.13;;;;;;;22.66;37.20;94387.00;5028643;28;20509;-58
2022/04/25 06:28:00;;;;;;;20.37;6.00;;;;;;;22.30;37.46;94398.59;5029320;28;20881;-53
2022/04/25 06:30:29;;;;;;;27.87;7.67;;;;;;;22.82;37.10;94369.09;5028452;28;21005;-57
2022/04/25 06:32:57;;;;;;;29.73;7.73;;;;;;;22.95;37.76;94375.91;5028831;28;20435;-63
2022/04/25 06:35:25;;;;;;;32.07;7.13;;;;;;;22.92;37.29;94382.72;5031550;28;20863;-54
2022/04/25 06:37:52;;;;;;;33.03;6.53;;;;;;;22.76;37.39;94373.91;5033113;28;21049;-56
2022/04/25 06:40:20;;;;;;;25.80;7.10;;;;;;;23.13;37.87;94367.22;5032448;28;20462;-58
2022/04/25 06:42:47;;;;;;;22.20;6.23;;;;;;;23.45;37.59;94383.25;5032526;28;20998;-55
2022/04/25 06:45:16;;;;;;;26.67;6.93;;;;;;;23.68;36.67;94381.44;5032067;28;20439;-60
2022/04/25 06:47:43;;;;;;;24.90;6.20;;;;;;;23.78;36.36;94387.03;5032556;28;20436;-57
2022/04/25 06:50:10;;;;;;;28.80;7.20;;;;;;;23.84;36.20;94385.63;5031983;28;20775;-57
2022/04/25 06:52:37;;;;;;;32.70;8.10;;;;;;;23.73;36.62;94373.94;5032183;28;20440;-57
2022/04/25 06:55:05;;;;;;;34.43;6.70;;;;;;;24.13;36.56;94381.66;5032126;28;20578;-55
2022/04/25 06:57:35;;;;;;;24.00;5.87;;;;;;;23.87;35.24;94384.13;5032591;28;21025;-55
2022/04/25 07:00:11;;;;;;;29.47;6.57;;;;;;;23.69;36.23;94377.63;5032172;28;20542;-59
2022/04/25 07:02:58;;;;;;;28.57;6.70;;;;;;;23.89;35.79;94379.22;5031930;28;20444;-57
2022/04/25 07:05:25;;;;;;;25.40;5.80;;;;;;;24.13;35.14;94365.59;5032130;28;20447;-63
2022/04/25 07:07:53;;;;;;;29.53;6.53;;;;;;;24.23;35.00;94377.66;5032201;28;20209;-56
2022/04/25 07:10:20;;;;;;;30.50;6.50;;;;;;;24.40;35.33;94385.22;5031857;28;20444;-60
2022/04/25 07:12:47;;;;;;;30.10;6.77;;;;;;;24.45;35.38;94380.34;5032081;28;20193;-57
2022/04/25 07:15:14;;;;;;;24.30;6.63;;;;;;;24.46;35.09;94367.75;5031759;28;20482;-60
2022/04/25 07:17:40;;;;;;;29.67;6.27;;;;;;;24.44;35.08;94370.78;5031658;28;20239;-52
2022/04/25 07:20:08;;;;;;;26.93;5.97;;;;;;;24.43;34.51;94361.22;5031292;28;20200;-58
2022/04/25 07:30:51;;;;;;;31.43;6.10;;;;;;;25.13;33.62;94356.28;5031312;28;20201;-52
2022/04/25 07:33:18;;;;;;;21.27;4.97;;;;;;;25.29;33.58;94350.81;5031182;28;20207;-60
2022/04/25 07:35:46;;;;;;;30.97;6.03;;;;;;;25.22;34.02;94351.47;5031426;28;20679;-62
2022/04/25 07:38:13;;;;;;;30.90;6.47;;;;;;;25.31;34.22;94349.28;5031812;28;20188;-58
2022/04/25 07:40:41;;;;;;;30.47;6.47;;;;;;;25.34;33.76;94358.53;5031228;28;20292;-60
2022/04/25 07:43:08;;;;;;;22.90;6.73;;;;;;;25.38;33.58;94359.41;5031527;28;20255;-57
2022/04/25 07:45:35;;;;;;;27.40;7.23;;;;;;;25.65;32.66;94347.50;5029636;28;20721;-54
2022/04/25 07:48:02;;;;;;;26.93;5.83;;;;;;;25.68;33.04;94341.41;5031724;28;20577;-54
2022/04/25 07:50:29;;;;;;;35.13;6.47;;;;;;;25.74;32.29;94350.72;5031066;28;20209;-54
2022/04/25 07:52:56;;;;;;;27.37;5.07;;;;;;;26.18;31.31;94349.00;5031355;28;20204;-58
2022/04/25 07:55:23;;;;;;;31.70;5.93;;;;;;;26.26;31.45;94345.22;5031284;28;20655;-55
2022/04/25 07:57:50;;;;;;;31.23;5.40;;;;;;;26.25;31.68;94338.31;5031183;28;20200;-58
2022/04/25 08:00:17;;;;;;;29.13;5.77;;;;;;;26.54;30.91;94332.09;5031161;28;20204;-59
2022/04/25 08:02:43;;;;;;;28.77;5.47;;;;;;;26.53;30.84;94333.22;5031648;28;20251;-59
2022/04/25 08:05:11;;;;;;;27.73;6.27;;;;;;;26.47;30.26;94329.34;5030668;28;20296;-57
2022/04/25 08:07:37;;;;;;;26.33;5.63;;;;;;;26.57;29.24;94330.59;5031110;28;20215;-58
2022/04/25 08:10:05;;;;;;;29.77;4.67;;;;;;;25.82;27.40;94330.88;5030853;28;20209;-58
2022/04/25 08:18:06;;;;;;;36.27;5.83;;;;;;;26.38;27.05;94320.81;5030715;28;20618;-57
2022/04/25 08:20:36;;;;;;;34.27;4.50;;;;;;;26.33;25.68;94313.06;5030311;28;20641;-57
2022/04/25 08:23:04;;;;;;;35.13;4.60;;;;;;;26.48;24.99;94320.13;5030673;28;20907;-50
2022/04/25 08:25:32;;;;;;;31.63;5.27;;;;;;;26.43;24.60;94307.03;5030199;28;20205;-56
2022/04/25 08:28:00;;;;;;;31.00;4.80;;;;;;;25.96;24.34;94309.56;5030505;28;20638;-57
2022/04/25 08:30:28;;;;;;;23.30;4.43;;;;;;;26.32;24.13;94311.53;5029992;28;20189;-58
2022/04/25 08:32:56;;;;;;;38.47;4.80;;;;;;;26.42;23.61;94294.75;5030361;28;20201;-53
2022/04/25 08:35:24;;;;;;;33.07;5.30;;;;;;;27.18;23.35;94297.72;5029988;28;20223;-55
2022/04/25 08:37:51;;;;;;;31.43;5.13;;;;;;;27.37;24.64;94303.63;5030829;28;20209;-56
2022/04/25 08:40:18;;;;;;;33.73;4.67;;;;;;;27.68;23.11;94299.59;5029719;28;20284;-58
2022/04/25 08:42:45;;;;;;;48.83;5.07;;;;;;;27.55;22.12;94298.38;5030964;28;20193;-59
2022/04/25 08:45:13;;;;;;;30.00;4.93;;;;;;;27.10;21.88;94301.50;5029983;28;20197;-60
2022/04/25 08:47:47;;;;;;;33.50;4.73;;;;;;;26.76;22.43;94309.69;5030518;28;20207;-55
2022/04/25 08:50:17;;;;;;;32.77;5.47;;;;;;;27.15;22.09;94293.88;5029758;28;20210;-58
2022/04/25 08:52:46;;;;;;;26.30;4.83;;;;;;;27.13;22.12;94290.00;5030185;28;20206;-53
2022/04/25 08:55:14;;;;;;;27.03;4.63;;;;;;;26.45;22.11;94304.75;5029850;28;20240;-58
2022/04/25 08:57:43;;;;;;;30.77;4.50;;;;;;;26.62;22.26;94288.00;5030245;28;20189;-56
2022/04/25 09:00:11;;;;;;;33.87;4.43;;;;;;;26.37;21.47;94297.75;5029933;28;20210;-63
2022/04/25 09:02:39;;;;;;;30.60;4.63;;;;;;;26.18;21.83;94307.94;5029879;28;20692;-56
2022/04/25 09:05:10;;;;;;;25.33;4.23;;;;;;;26.69;21.33;94288.13;5029310;28;20300;-55
2022/04/25 09:07:38;;;;;;;34.97;4.70;;;;;;;26.78;21.96;94296.66;5029926;28;20189;-57
2022/04/25 09:10:14;;;;;;;29.50;5.03;;;;;;;27.34;21.49;94290.16;5029382;28;21065;-58
2022/04/25 09:12:46;;;;;;;21.43;4.60;;;;;;;27.34;21.15;94280.16;5030072;28;20717;-54
2022/04/25 09:15:23;;;;;;;29.37;4.83;;;;;;;27.20;21.28;94279.28;5029707;28;20251;-56
2022/04/25 09:17:54;;;;;;;29.40;4.17;;;;;;;27.64;21.35;94277.25;5029720;28;20228;-53
2022/04/25 09:20:23;;;;;;;31.80;3.93;;;;;;;27.34;20.68;94279.41;5029286;28;20181;-60
2022/04/25 09:22:50;;;;;;;20.80;4.20;;;;;;;26.30;20.99;94286.16;5029836;28;20212;-61
2022/04/25 09:25:18;;;;;;;28.03;3.50;;;;;;;26.98;20.72;94276.47;5029638;28;20313;-57
2022/04/25 09:28:11;;;;;;;24.10;3.43;;;;;;;26.31;21.20;94283.16;5030054;28;20211;-52
2022/04/25 09:30:38;;;;;;;19.43;3.90;;;;;;;27.49;21.01;94281.03;5029671;28;20203;-53
2022/04/25 09:33:22;;;;;;;17.60;3.33;;;;;;;26.61;21.40;94285.69;5030005;28;20193;-57
2022/04/25 09:35:56;;;;;;;23.50;3.70;;;;;;;27.52;21.36;94280.25;5029300;28;20229;-58
2022/04/25 09:38:32;;;;;;;21.97;3.90;;;;;;;27.28;20.32;94272.81;5029607;28;20258;-62
2022/04/25 09:41:01;;;;;;;30.00;4.00;;;;;;;27.86;20.80;94262.75;5028889;28;20730;-53
2022/04/25 09:43:30;;;;;;;23.97;3.80;;;;;;;28.01;20.72;94268.97;5029490;28;20188;-57
2022/04/25 09:46:11;;;;;;;17.73;3.70;;;;;;;27.65;19.85;94257.25;5029366;28;20205;-53
2022/04/25 09:48:43;;;;;;;26.37;3.80;;;;;;;27.31;20.50;94256.72;5029336;28;20254;-61
2022/04/25 09:51:16;;;;;;;17.17;3.67;;;;;;;27.53;20.61;94250.31;5028943;28;20232;-58
2022/04/25 09:53:53;;;;;;;23.53;4.13;;;;;;;27.72;20.07;94249.22;5029457;28;20197;-57
2022/04/25 09:56:26;;;;;;;20.80;3.77;;;;;;;27.60;20.29;94268.41;5028772;28;20209;-59
2022/04/25 09:59:07;;;;;;;22.53;3.83;;;;;;;28.31;20.27;94251.34;5029739;28;20254;-61
2022/04/25 10:01:37;;;;;;;26.07;3.50;;;;;;;28.93;19.26;94244.47;5028758;28;20223;-56
2022/04/25 10:04:06;;;;;;;24.30;3.40;;;;;;;28.35;18.67;94241.34;5029154;28;20177;-55
2022/04/25 10:06:34;;;;;;;18.30;3.57;;;;;;;28.62;18.43;94250.66;5028534;28;20231;-63
2022/04/25 10:09:06;;;;;;;21.97;3.57;;;;;;;28.64;18.88;94247.56;5029956;28;20259;-59
2022/04/25 10:11:35;;;;;;;18.43;3.20;;;;;;;27.92;17.98;94239.66;5032528;28;20205;-59
2022/04/25 10:14:03;;;;;;;15.53;3.23;;;;;;;27.76;17.90;94258.06;5032991;28;20189;-61
2022/04/25 10:16:34;;;;;;;27.37;3.57;;;;;;;28.25;18.57;94252.88;5032795;28;20232;-58
2022/04/25 10:19:03;;;;;;;18.53;3.17;;;;;;;29.04;17.29;94244.47;5032998;28;20240;-54
2022/04/25 10:21:31;;;;;;;20.47;3.53;;;;;;;28.74;17.28;94247.56;5032558;28;20263;-58
2022/04/25 10:23:58;;;;;;;20.20;2.87;;;;;;;28.45;17.04;94245.22;5032709;28;20211;-55
2022/04/25 10:26:27;;;;;;;20.33;3.20;;;;;;;28.74;17.12;94247.56;5032459;28;20264;-54
2022/04/25 10:29:11;;;;;;;20.87;3.00;;;;;;;28.64;16.39;94253.72;5032947;28;20201;-60
2022/04/25 10:31:44;;;;;;;16.23;3.57;;;;;;;28.88;17.56;94242.19;5032495;28;20195;-60
2022/04/25 10:34:15;;;;;;;21.63;3.23;;;;;;;28.99;17.56;94231.38;5033240;28;20560;-58
2022/04/25 10:36:47;;;;;;;17.10;2.77;;;;;;;28.60;17.00;94236.78;5031960;28;20224;-57
2022/04/25 10:39:18;;;;;;;17.33;3.10;;;;;;;29.21;15.99;94216.72;5032678;28;20207;-60
2022/04/25 10:44:43;;;;;;;16.03;2.77;;;;;;;28.92;15.62;94248.31;5032272;28;20280;-56
2022/04/25 10:47:21;;;;;;;24.33;3.23;;;;;;;29.20;15.78;94228.66;5032327;28;20292;-56
2022/04/25 10:49:55;;;;;;;19.10;3.33;;;;;;;29.84;15.80;94238.13;5032375;28;20280;-60
2022/04/25 10:52:34;;;;;;;12.73;2.57;;;;;;;29.18;15.44;94251.81;5033146;28;20208;-55
2022/04/25 10:55:23;;;;;;;17.57;2.60;;;;;;;29.50;14.88;94241.69;5032502;28;20201;-56
2022/04/25 10:58:02;;;;;;;14.17;2.40;;;;;;;29.82;14.40;94245.06;5032379;28;20204;-55
2022/04/25 11:00:36;;;;;;;25.40;2.77;;;;;;;30.38;14.90;94238.66;5032185;28;20200;-51
2022/04/25 11:03:10;;;;;;;18.10;3.13;;;;;;;31.02;14.72;94238.94;5031047;28;20637;-57
2022/04/25 11:05:39;;;;;;;12.60;2.10;;;;;;;29.79;15.11;94241.25;5031844;28;20247;-58
2022/04/25 11:08:18;;;;;;;21.23;3.03;;;;;;;30.27;15.15;94248.75;5032161;28;20205;-57
2022/04/25 11:10:59;;;;;;;23.07;3.40;;;;;;;31.05;14.57;94238.13;5032070;28;20213;-55
2022/04/25 11:13:48;;;;;;;21.47;2.97;;;;;;;30.19;15.00;94237.19;5032073;28;20304;-53
2022/04/25 11:16:24;;;;;;;16.43;2.77;;;;;;;30.45;14.63;94239.38;5031133;28;20322;-59
2022/04/25 11:19:11;;;;;;;15.20;3.50;;;;;;;30.02;14.21;94232.63;5031796;28;20703;-60
2022/04/25 11:21:47;;;;;;;16.27;2.70;;;;;;;30.30;14.37;94237.91;5031068;28;20205;-58
2022/04/25 11:24:33;;;;;;;23.40;3.20;;;;;;;31.33;13.60;94232.47;5032133;28;20173;-56
2022/04/25 11:27:03;;;;;;;19.47;2.60;;;;;;;30.48;14.31;94238.56;5031750;28;20197;-56
2022/04/25 11:29:31;;;;;;;12.07;2.17;;;;;;;30.30;14.32;94246.03;5031836;28;20197;-56
2022/04/25 11:32:30;;;;;;;23.33;3.40;;;;;;;30.52;14.21;94243.94;5031937;28;20189;-59
2022/04/25 11:35:01;;;;;;;21.07;2.93;;;;;;;30.86;14.27;94251.06;5031476;28;20236;-52
2022/04/25 11:37:29;;;;;;;18.13;3.77;;;;;;;30.42;14.26;94234.75;5031542;28;20554;-52
2022/04/25 11:40:02;;;;;;;14.97;1.93;;;;;;;29.46;15.01;94246.34;5030054;28;20216;-56
2022/04/25 11:42:32;;;;;;;15.33;3.00;;;;;;;29.68;14.77;94245.09;5031751;28;20268;-57
2022/04/25 11:44:59;;;;;;;15.70;2.67;;;;;;;30.36;13.83;94246.38;5030902;28;20201;-56
2022/04/25 11:47:29;;;;;;;15.13;2.50;;;;;;;30.77;14.90;94248.00;5031449;28;20280;-56
2022/04/25 11:49:58;;;;;;;20.43;4.03;;;;;;;32.49;16.31;94248.13;5031487;28;20201;-55
2022/04/25 11:52:26;;;;;;;19.00;2.60;;;;;;;32.81;15.37;94239.47;5031522;28;20210;-61
2022/04/25 11:54:54;;;;;;;16.27;2.70;;;;;;;31.72;12.51;94227.41;5031093;28;20205;-64
2022/04/25 11:57:22;;;;;;;12.63;2.00;;;;;;;30.60;13.78;94235.38;5030014;28;20243;-55
2022/04/25 12:00:04;;;;;;;11.63;2.27;;;;;;;30.98;15.65;94238.22;5030499;28;20300;-59
2022/04/25 12:02:38;;;;;;;11.53;2.30;;;;;;;31.55;14.58;94239.22;5031353;28;20208;-56